createdAt,value
2019-03-25T00:00:49.727Z,68.27
2019-03-25T00:01:49.712Z,68.37
2019-03-25T00:02:49.709Z,67.96
2019-03-25T00:03:49.729Z,68.48
2019-03-25T00:04:49.684Z,68.27
2019-03-25T00:05:49.681Z,68.16
2019-03-25T00:06:49.644Z,68.16
2019-03-25T00:07:49.633Z,68.27
2019-03-25T00:09:03.209Z,68.16
2019-03-25T00:09:50.650Z,68.27
2019-03-25T00:10:49.663Z,68.06
2019-03-25T00:11:49.644Z,67.54
2019-03-25T00:12:49.625Z,67.65
2019-03-25T00:13:49.645Z,67.75
2019-03-25T00:14:49.576Z,67.65
2019-03-25T00:15:49.610Z,67.75
2019-03-25T00:16:49.558Z,67.75
2019-03-25T00:17:49.546Z,67.65
2019-03-25T00:18:49.539Z,67.65
2019-03-25T00:19:49.583Z,67.65
2019-03-25T00:20:49.519Z,67.44
2019-03-25T00:21:49.497Z,67.44
2019-03-25T00:22:49.494Z,67.75
2019-03-25T00:23:49.509Z,67.85
2019-03-25T00:24:49.474Z,67.65
2019-03-25T00:25:49.463Z,67.54
2019-03-25T00:26:49.471Z,67.65
2019-03-25T00:27:49.442Z,67.68
2019-03-25T00:28:49.425Z,67.54
2019-03-25T00:29:49.448Z,67.78
2019-03-25T00:30:49.438Z,68.09
2019-03-25T00:31:49.399Z,68.40
2019-03-25T00:32:49.366Z,68.30
2019-03-25T00:33:49.379Z,68.19
2019-03-25T00:34:49.433Z,68.09
2019-03-25T00:35:49.386Z,68.19
2019-03-25T00:36:49.369Z,68.19
2019-03-25T00:37:49.350Z,68.30
2019-03-25T00:38:49.327Z,68.30
2019-03-25T00:39:49.295Z,68.30
2019-03-25T00:40:49.353Z,68.30
2019-03-25T00:41:49.342Z,68.82
2019-03-25T00:42:49.281Z,68.71
2019-03-25T00:43:49.292Z,68.09
2019-03-25T00:44:49.310Z,68.19
2019-03-25T00:45:49.266Z,68.09
2019-03-25T00:46:49.315Z,67.99
2019-03-25T00:47:49.252Z,68.40
2019-03-25T00:48:49.205Z,68.40
2019-03-25T00:49:49.259Z,68.16
2019-03-25T00:50:49.219Z,68.30
2019-03-25T00:51:49.208Z,68.30
2019-03-25T00:52:49.196Z,68.09
2019-03-25T00:53:49.180Z,67.96
2019-03-25T00:54:50.148Z,67.99
2019-03-25T00:55:49.198Z,67.65
2019-03-25T00:56:49.131Z,67.96
2019-03-25T00:57:49.112Z,67.65
2019-03-25T00:58:49.103Z,67.75
2019-03-25T00:59:49.141Z,67.65
2019-03-25T01:00:49.132Z,67.54
2019-03-25T01:01:49.124Z,67.75
2019-03-25T01:02:49.041Z,67.54
2019-03-25T01:03:49.076Z,67.85
2019-03-25T01:04:49.087Z,68.06
2019-03-25T01:05:49.048Z,67.85
2019-03-25T01:06:49.038Z,67.75
2019-03-25T01:07:49.010Z,67.75
2019-03-25T01:08:48.989Z,67.75
2019-03-25T01:09:48.977Z,67.75
2019-03-25T01:10:49.008Z,67.65
2019-03-25T01:11:49.554Z,67.54
2019-03-25T01:12:48.971Z,67.85
2019-03-25T01:13:48.921Z,67.54
2019-03-25T01:14:48.933Z,67.24
2019-03-25T01:15:48.912Z,67.54
2019-03-25T01:16:48.912Z,67.44
2019-03-25T01:17:48.897Z,67.65
2019-03-25T01:18:48.867Z,67.54
2019-03-25T01:19:48.916Z,67.03
2019-03-25T01:20:48.863Z,67.03
2019-03-25T01:21:48.845Z,67.03
2019-03-25T01:22:48.858Z,67.03
2019-03-25T01:23:48.855Z,66.51
2019-03-25T01:24:48.898Z,66.51
2019-03-25T01:25:48.803Z,66.51
2019-03-25T01:26:48.830Z,66.51
2019-03-25T01:27:48.823Z,66.72
2019-03-25T01:28:48.783Z,66.72
2019-03-25T01:29:48.820Z,66.51
2019-03-25T01:30:48.753Z,66.93
2019-03-25T01:31:48.742Z,66.61
2019-03-25T01:32:48.745Z,66.48
2019-03-25T01:33:48.725Z,66.82
2019-03-25T01:34:48.759Z,66.61
2019-03-25T01:35:48.693Z,66.51
2019-03-25T01:36:48.727Z,66.72
2019-03-25T01:37:48.666Z,66.30
2019-03-25T01:38:48.708Z,66.72
2019-03-25T01:39:48.666Z,66.79
2019-03-25T01:40:48.647Z,66.51
2019-03-25T01:41:48.654Z,66.61
2019-03-25T01:42:48.631Z,66.79
2019-03-25T01:43:48.623Z,66.93
2019-03-25T01:44:48.630Z,67.13
2019-03-25T01:45:48.602Z,67.13
2019-03-25T01:46:48.597Z,66.61
2019-03-25T01:47:48.568Z,67.03
2019-03-25T01:48:48.576Z,66.82
2019-03-25T01:49:48.600Z,66.72
2019-03-25T01:50:48.542Z,66.82
2019-03-25T01:51:48.534Z,67.03
2019-03-25T01:52:48.534Z,66.93
2019-03-25T01:53:48.546Z,67.24
2019-03-25T01:54:48.506Z,67.65
2019-03-25T01:55:48.519Z,67.54
2019-03-25T01:56:48.478Z,67.65
2019-03-25T01:57:48.455Z,67.44
2019-03-25T01:58:48.469Z,67.61
2019-03-25T01:59:48.474Z,67.96
2019-03-25T02:00:48.485Z,67.65
2019-03-25T02:01:48.434Z,67.75
2019-03-25T02:02:48.420Z,67.85
2019-03-25T02:03:48.434Z,67.96
2019-03-25T02:04:48.415Z,67.96
2019-03-25T02:05:48.439Z,68.24
2019-03-25T02:06:48.373Z,68.16
2019-03-25T02:07:48.465Z,68.88
2019-03-25T02:08:48.402Z,68.78
2019-03-25T02:09:48.366Z,68.99
2019-03-25T02:10:48.433Z,69.20
2019-03-25T02:11:48.347Z,69.51
2019-03-25T02:12:48.327Z,69.51
2019-03-25T02:13:48.305Z,69.51
2019-03-25T02:14:48.370Z,69.09
2019-03-25T02:15:48.289Z,69.61
2019-03-25T02:16:48.298Z,70.03
2019-03-25T02:17:48.268Z,69.92
2019-03-25T02:18:48.253Z,70.12
2019-03-25T02:19:48.267Z,69.82
2019-03-25T02:20:48.262Z,70.03
2019-03-25T02:21:48.283Z,70.23
2019-03-25T02:22:48.449Z,70.54
2019-03-25T02:23:48.246Z,70.64
2019-03-25T02:24:48.292Z,70.75
2019-03-25T02:25:48.192Z,70.75
2019-03-25T02:26:48.169Z,71.16
2019-03-25T02:27:48.168Z,70.85
2019-03-25T02:28:48.223Z,71.78
2019-03-25T02:29:48.185Z,71.78
2019-03-25T02:30:48.158Z,71.57
2019-03-25T02:31:48.183Z,71.47
2019-03-25T02:32:48.205Z,71.37
2019-03-25T02:33:48.142Z,71.98
2019-03-25T02:34:48.141Z,71.26
2019-03-25T02:35:48.174Z,71.57
2019-03-25T02:36:48.083Z,71.57
2019-03-25T02:37:48.032Z,71.78
2019-03-25T02:38:48.098Z,71.57
2019-03-25T02:39:48.083Z,71.88
2019-03-25T02:40:48.089Z,72.36
2019-03-25T02:41:48.059Z,71.78
2019-03-25T02:42:47.998Z,72.19
2019-03-25T02:43:47.976Z,71.95
2019-03-25T02:44:47.977Z,72.67
2019-03-25T02:45:47.973Z,72.40
2019-03-25T02:46:47.980Z,72.61
2019-03-25T02:47:47.951Z,72.57
2019-03-25T02:48:47.947Z,72.36
2019-03-25T02:49:47.918Z,72.30
2019-03-25T02:50:47.968Z,72.57
2019-03-25T02:51:47.913Z,73.02
2019-03-25T02:52:47.894Z,72.91
2019-03-25T02:53:47.877Z,73.12
2019-03-25T02:54:47.852Z,74.05
2019-03-25T02:55:47.885Z,75.67
2019-03-25T02:56:47.827Z,76.73
2019-03-25T02:57:47.838Z,76.73
2019-03-25T02:58:47.843Z,76.94
2019-03-25T02:59:47.852Z,77.36
2019-03-25T03:02:04.097Z,77.56
2019-03-25T03:03:04.019Z,77.98
2019-03-25T03:04:04.069Z,78.39
2019-03-25T03:05:04.030Z,78.18
2019-03-25T03:06:04.040Z,79.38
2019-03-25T03:07:03.983Z,79.11
2019-03-25T03:08:03.961Z,79.42
2019-03-25T03:09:03.957Z,81.18
2019-03-25T03:10:03.945Z,82.21
2019-03-25T03:11:03.963Z,82.04
2019-03-25T03:12:03.934Z,82.76
2019-03-25T03:13:03.934Z,83.70
2019-03-25T03:14:03.914Z,83.53
2019-03-25T03:15:03.873Z,84.36
2019-03-25T03:16:03.912Z,85.28
2019-03-25T03:17:03.869Z,85.28
2019-03-25T03:18:03.904Z,85.42
2019-03-25T03:19:03.858Z,84.91
2019-03-25T03:20:03.844Z,85.94
2019-03-25T03:21:03.831Z,85.78
2019-03-25T03:22:03.828Z,85.26
2019-03-25T03:23:03.821Z,85.78
2019-03-25T03:24:03.801Z,85.26
2019-03-25T03:25:03.789Z,84.22
2019-03-25T03:26:03.804Z,84.99
2019-03-25T03:27:03.742Z,85.61
2019-03-25T03:28:03.819Z,85.40
2019-03-25T03:29:03.748Z,85.50
2019-03-25T03:30:03.774Z,85.40
2019-03-25T03:31:03.821Z,85.30
2019-03-25T03:32:03.717Z,85.40
2019-03-25T03:33:03.723Z,85.40
2019-03-25T03:34:03.702Z,85.19
2019-03-25T03:35:03.715Z,85.50
2019-03-25T03:36:03.697Z,86.23
2019-03-25T03:37:03.682Z,85.78
2019-03-25T03:38:03.641Z,85.09
2019-03-25T03:39:03.670Z,84.47
2019-03-25T03:40:03.660Z,84.68
2019-03-25T03:41:03.667Z,84.58
2019-03-25T03:42:03.616Z,84.88
2019-03-25T03:43:03.584Z,84.95
2019-03-25T03:44:03.583Z,84.64
2019-03-25T03:45:03.564Z,84.22
2019-03-25T03:46:03.582Z,83.81
2019-03-25T03:47:03.633Z,84.01
2019-03-25T03:48:03.659Z,83.64
2019-03-25T03:49:03.528Z,84.06
2019-03-25T03:50:03.507Z,84.37
2019-03-25T03:51:03.533Z,83.71
2019-03-25T03:52:03.497Z,83.81
2019-03-25T03:53:03.458Z,84.01
2019-03-25T03:54:03.471Z,83.29
2019-03-25T03:55:03.444Z,83.33
2019-03-25T03:56:12.989Z,83.61
2019-03-25T03:57:03.471Z,83.29
2019-03-25T03:58:03.402Z,83.09
2019-03-25T03:59:03.400Z,82.78
2019-03-25T04:00:03.450Z,82.19
2019-03-25T04:01:03.439Z,82.50
2019-03-25T04:02:03.385Z,82.78
2019-03-25T04:03:03.423Z,81.95
2019-03-25T04:04:03.362Z,82.40
2019-03-25T04:05:03.362Z,82.09
2019-03-25T04:06:03.400Z,82.29
2019-03-25T04:07:03.393Z,82.60
2019-03-25T04:08:03.350Z,82.29
2019-03-25T04:09:03.320Z,82.13
2019-03-25T04:10:03.297Z,82.34
2019-03-25T04:11:03.356Z,82.50
2019-03-25T04:12:03.294Z,82.40
2019-03-25T04:13:03.311Z,82.34
2019-03-25T04:14:03.293Z,82.95
2019-03-25T04:15:03.280Z,83.16
2019-03-25T04:16:03.315Z,82.75
2019-03-25T04:17:03.217Z,83.31
2019-03-25T04:18:03.234Z,82.89
2019-03-25T04:19:03.205Z,83.83
2019-03-25T04:20:03.214Z,83.83
2019-03-25T04:21:03.208Z,82.68
2019-03-25T04:22:03.163Z,82.89
2019-03-25T04:23:03.177Z,82.89
2019-03-25T04:24:03.166Z,82.48
2019-03-25T04:25:03.159Z,83.00
2019-03-25T04:26:03.132Z,82.27
2019-03-25T04:27:03.129Z,82.17
2019-03-25T04:28:03.114Z,82.68
2019-03-25T04:29:03.102Z,82.27
2019-03-25T04:30:03.101Z,82.27
2019-03-25T04:31:03.116Z,82.37
2019-03-25T04:32:06.060Z,82.17
2019-03-25T04:33:03.016Z,82.79
2019-03-25T04:34:03.030Z,82.89
2019-03-25T04:35:02.996Z,82.17
2019-03-25T04:36:03.067Z,82.48
2019-03-25T04:37:03.019Z,82.48
2019-03-25T04:38:03.013Z,82.37
2019-03-25T04:39:03.082Z,81.96
2019-03-25T04:40:03.015Z,82.37
2019-03-25T04:41:03.041Z,82.68
2019-03-25T04:42:02.938Z,82.34
2019-03-25T04:43:02.959Z,81.75
2019-03-25T04:44:02.937Z,82.48
2019-03-25T04:45:02.939Z,82.03
2019-03-25T04:46:02.910Z,82.06
2019-03-25T04:47:02.932Z,81.65
2019-03-25T04:48:02.889Z,81.92
2019-03-25T04:49:02.886Z,81.85
2019-03-25T04:50:02.885Z,81.96
2019-03-25T04:51:02.885Z,81.75
2019-03-25T04:52:02.845Z,82.48
2019-03-25T04:53:02.866Z,82.58
2019-03-25T04:54:02.805Z,82.48
2019-03-25T04:55:03.067Z,82.27
2019-03-25T04:56:02.793Z,81.96
2019-03-25T04:57:02.771Z,81.96
2019-03-25T04:58:02.742Z,82.27
2019-03-25T04:59:05.336Z,81.65
2019-03-25T05:00:02.729Z,82.48
2019-03-25T05:01:02.771Z,82.27
2019-03-25T05:02:02.705Z,82.68
2019-03-25T05:03:02.714Z,82.27
2019-03-25T05:04:02.724Z,82.89
2019-03-25T05:05:02.712Z,82.89
2019-03-25T05:06:02.657Z,82.68
2019-03-25T05:07:02.716Z,82.68
2019-03-25T05:08:02.675Z,82.93
2019-03-25T05:09:02.643Z,82.58
2019-03-25T05:10:02.654Z,83.00
2019-03-25T05:11:03.839Z,82.48
2019-03-25T05:12:02.635Z,82.62
2019-03-25T05:13:02.656Z,82.89
2019-03-25T05:14:02.590Z,82.37
2019-03-25T05:15:02.563Z,82.89
2019-03-25T05:16:02.557Z,83.00
2019-03-25T05:17:02.547Z,83.20
2019-03-25T05:18:02.524Z,83.00
2019-03-25T05:19:02.550Z,82.89
2019-03-25T05:20:02.540Z,82.48
2019-03-25T05:21:02.563Z,82.06
2019-03-25T05:22:02.537Z,82.89
2019-03-25T05:23:02.528Z,82.68
2019-03-25T05:24:02.481Z,82.27
2019-03-25T05:25:02.465Z,83.10
2019-03-25T05:26:02.454Z,82.58
2019-03-25T05:27:02.464Z,82.79
2019-03-25T05:28:02.435Z,82.79
2019-03-25T05:29:02.426Z,83.20
2019-03-25T05:30:02.463Z,82.68
2019-03-25T05:31:02.427Z,83.00
2019-03-25T05:32:02.457Z,82.89
2019-03-25T05:33:02.408Z,82.58
2019-03-25T05:34:02.431Z,82.89
2019-03-25T05:35:02.350Z,83.10
2019-03-25T05:36:02.343Z,83.00
2019-03-25T05:37:02.353Z,83.00
2019-03-25T05:38:02.340Z,82.79
2019-03-25T05:39:02.331Z,82.54
2019-03-25T05:40:02.322Z,82.13
2019-03-25T05:41:02.290Z,82.23
2019-03-25T05:42:02.303Z,82.29
2019-03-25T05:43:02.274Z,82.19
2019-03-25T05:44:02.261Z,82.44
2019-03-25T05:45:02.243Z,82.23
2019-03-25T05:46:02.267Z,82.09
2019-03-25T05:47:02.257Z,82.29
2019-03-25T05:48:02.200Z,82.29
2019-03-25T05:49:02.197Z,82.40
2019-03-25T05:50:02.226Z,82.19
2019-03-25T05:51:02.228Z,82.40
2019-03-25T05:52:02.241Z,82.92
2019-03-25T05:53:02.172Z,83.06
2019-03-25T05:54:02.177Z,82.54
2019-03-25T05:55:02.137Z,83.47
2019-03-25T05:56:02.181Z,83.78
2019-03-25T05:57:03.030Z,84.30
2019-03-25T05:58:02.112Z,84.23
2019-03-25T05:59:02.132Z,84.34
2019-03-25T06:00:02.133Z,84.75
2019-03-25T06:01:02.082Z,84.59
2019-03-25T06:02:02.065Z,84.23
2019-03-25T06:03:02.089Z,84.75
2019-03-25T06:04:02.042Z,84.86
2019-03-25T06:05:02.033Z,84.65
2019-03-25T06:06:02.016Z,84.96
2019-03-25T06:07:01.998Z,84.34
2019-03-25T06:08:02.023Z,84.23
2019-03-25T06:09:01.984Z,84.23
2019-03-25T06:10:01.950Z,84.44
2019-03-25T06:11:01.959Z,84.23
2019-03-25T06:12:01.943Z,84.44
2019-03-25T06:13:01.964Z,84.61
2019-03-25T06:14:01.906Z,84.72
2019-03-25T06:15:01.900Z,84.61
2019-03-25T06:16:01.885Z,84.82
2019-03-25T06:17:01.870Z,84.41
2019-03-25T06:18:01.927Z,84.37
2019-03-25T06:19:01.885Z,84.47
2019-03-25T06:20:01.842Z,84.16
2019-03-25T06:21:01.851Z,83.40
2019-03-25T06:22:01.821Z,84.33
2019-03-25T06:23:01.842Z,83.81
2019-03-25T06:24:01.812Z,83.44
2019-03-25T06:25:01.786Z,83.71
2019-03-25T06:26:01.782Z,84.01
2019-03-25T06:27:13.393Z,84.27
2019-03-25T06:28:02.778Z,83.85
2019-03-25T06:29:01.738Z,83.40
2019-03-25T06:30:01.780Z,83.61
2019-03-25T06:31:01.779Z,83.50
2019-03-25T06:32:01.743Z,82.98
2019-03-25T06:33:11.983Z,83.19
2019-03-25T06:34:02.690Z,83.29
2019-03-25T06:35:01.703Z,83.09
2019-03-25T06:36:01.687Z,83.19
2019-03-25T06:37:01.652Z,83.40
2019-03-25T06:38:01.711Z,84.12
2019-03-25T06:39:01.634Z,83.61
2019-03-25T06:40:01.634Z,84.01
2019-03-25T06:41:01.607Z,83.61
2019-03-25T06:42:01.594Z,83.61
2019-03-25T06:43:01.611Z,84.22
2019-03-25T06:44:01.597Z,83.81
2019-03-25T06:45:01.613Z,84.33
2019-03-25T06:46:01.551Z,84.39
2019-03-25T06:47:01.552Z,83.87
2019-03-25T06:48:01.565Z,82.95
2019-03-25T06:49:01.532Z,83.67
2019-03-25T06:50:01.506Z,83.98
2019-03-25T06:51:01.495Z,84.19
2019-03-25T06:52:01.493Z,83.05
2019-03-25T06:53:01.595Z,83.36
2019-03-25T06:54:01.503Z,83.25
2019-03-25T06:55:01.467Z,82.74
2019-03-25T06:56:01.621Z,83.29
2019-03-25T06:57:01.449Z,84.43
2019-03-25T06:58:01.425Z,84.64
2019-03-25T06:59:01.492Z,84.84
2019-03-25T07:00:01.448Z,84.95
2019-03-25T07:01:01.415Z,84.64
2019-03-25T07:02:01.390Z,84.53
2019-03-25T07:03:01.367Z,85.19
2019-03-25T07:04:01.368Z,85.88
2019-03-25T07:05:01.368Z,85.92
2019-03-25T07:06:01.351Z,85.82
2019-03-25T07:07:01.338Z,86.13
2019-03-25T07:08:01.313Z,86.13
2019-03-25T07:09:01.299Z,86.02
2019-03-25T07:10:01.402Z,86.13
2019-03-25T07:11:01.295Z,86.23
2019-03-25T07:12:01.270Z,85.68
2019-03-25T07:13:01.278Z,85.82
2019-03-25T07:14:01.246Z,85.26
2019-03-25T07:15:01.248Z,85.05
2019-03-25T07:16:01.266Z,83.71
2019-03-25T07:17:01.235Z,83.67
2019-03-25T07:18:01.220Z,83.67
2019-03-25T07:19:01.186Z,84.29
2019-03-25T07:20:01.217Z,83.94
2019-03-25T07:21:01.189Z,83.87
2019-03-25T07:22:01.156Z,83.73
2019-03-25T07:23:01.168Z,82.90
2019-03-25T07:24:01.159Z,83.22
2019-03-25T07:25:01.158Z,82.56
2019-03-25T07:26:01.166Z,82.62
2019-03-25T07:27:01.099Z,82.42
2019-03-25T07:28:01.134Z,82.21
2019-03-25T07:29:01.133Z,82.31
2019-03-25T07:30:01.084Z,82.21
2019-03-25T07:31:01.085Z,81.59
2019-03-25T07:32:01.073Z,82.21
2019-03-25T07:33:01.117Z,82.62
2019-03-25T07:34:01.025Z,82.73
2019-03-25T07:35:01.037Z,81.70
2019-03-25T07:36:01.050Z,82.00
2019-03-25T07:37:01.015Z,81.70
2019-03-25T07:38:00.990Z,82.21
2019-03-25T07:39:01.047Z,82.73
2019-03-25T07:40:01.010Z,82.93
2019-03-25T07:41:01.001Z,82.83
2019-03-25T07:42:00.981Z,83.49
2019-03-25T07:43:00.953Z,83.39
2019-03-25T07:44:00.917Z,82.97
2019-03-25T07:45:00.906Z,83.32
2019-03-25T07:46:00.927Z,83.01
2019-03-25T07:47:00.882Z,84.05
2019-03-25T07:48:00.890Z,84.19
2019-03-25T07:49:00.861Z,84.81
2019-03-25T07:50:00.848Z,84.74
2019-03-25T07:51:00.897Z,84.33
2019-03-25T07:52:00.853Z,85.16
2019-03-25T07:53:00.833Z,85.78
2019-03-25T07:54:00.845Z,85.99
2019-03-25T07:55:00.803Z,85.99
2019-03-25T07:56:00.836Z,86.96
2019-03-25T07:57:00.774Z,86.50
2019-03-25T07:58:00.764Z,87.06
2019-03-25T07:59:00.747Z,87.37
2019-03-25T08:00:00.796Z,87.06
2019-03-25T08:01:00.750Z,85.61
2019-03-25T08:02:00.713Z,85.82
2019-03-25T08:03:00.726Z,86.33
2019-03-25T08:04:00.734Z,85.92
2019-03-25T08:05:00.708Z,86.02
2019-03-25T08:06:00.733Z,86.58
2019-03-25T08:07:00.669Z,86.44
2019-03-25T08:08:00.692Z,86.65
2019-03-25T08:09:04.011Z,86.02
2019-03-25T08:10:00.653Z,85.92
2019-03-25T08:11:00.705Z,85.40
2019-03-25T08:12:00.639Z,85.71
2019-03-25T08:13:00.699Z,84.27
2019-03-25T08:14:00.640Z,84.58
2019-03-25T08:15:00.593Z,84.92
2019-03-25T08:16:03.296Z,84.51
2019-03-25T08:17:00.654Z,84.41
2019-03-25T08:18:00.566Z,84.30
2019-03-25T08:19:00.590Z,84.51
2019-03-25T08:20:00.565Z,83.78
2019-03-25T08:21:00.578Z,85.03
2019-03-25T08:22:00.560Z,84.82
2019-03-25T08:23:00.518Z,85.75
2019-03-25T08:24:00.493Z,85.69
2019-03-25T08:25:00.477Z,85.75
2019-03-25T08:26:00.480Z,86.13
2019-03-25T08:27:00.471Z,86.27
2019-03-25T08:28:00.790Z,86.33
2019-03-25T08:29:00.445Z,85.82
2019-03-25T08:30:00.433Z,86.23
2019-03-25T08:31:00.455Z,85.40
2019-03-25T08:32:00.403Z,85.50
2019-03-25T08:33:00.406Z,84.88
2019-03-25T08:34:00.391Z,85.16
2019-03-25T08:35:00.396Z,85.47
2019-03-25T08:36:00.406Z,85.22
2019-03-25T08:37:00.335Z,84.91
2019-03-25T08:38:00.383Z,84.08
2019-03-25T08:39:00.328Z,83.73
2019-03-25T08:40:00.387Z,83.63
2019-03-25T08:41:00.348Z,83.49
2019-03-25T08:42:00.333Z,83.18
2019-03-25T08:43:00.302Z,83.59
2019-03-25T08:44:00.312Z,83.25
2019-03-25T08:45:00.356Z,83.45
2019-03-25T08:46:00.311Z,82.83
2019-03-25T08:47:00.242Z,83.25
2019-03-25T08:48:00.286Z,83.25
2019-03-25T08:49:00.224Z,83.45
2019-03-25T08:50:00.350Z,83.86
2019-03-25T08:51:00.196Z,83.04
2019-03-25T08:52:00.185Z,83.41
2019-03-25T08:53:00.177Z,83.20
2019-03-25T08:54:00.208Z,83.83
2019-03-25T08:55:00.305Z,83.48
2019-03-25T08:56:00.167Z,81.82
2019-03-25T08:57:00.130Z,82.45
2019-03-25T08:58:11.243Z,82.55
2019-03-25T08:59:01.130Z,82.34
2019-03-25T09:00:00.131Z,82.55
2019-03-25T09:01:00.102Z,82.40
2019-03-25T09:02:00.142Z,81.48
2019-03-25T09:03:00.056Z,80.65
2019-03-25T09:04:00.072Z,81.79
2019-03-25T09:05:00.221Z,81.37
2019-03-25T09:06:00.054Z,81.54
2019-03-25T09:07:00.042Z,82.47
2019-03-25T09:08:00.033Z,81.54
2019-03-25T09:09:00.058Z,81.85
2019-03-25T09:10:00.000Z,80.68
2019-03-25T09:11:00.037Z,81.51
2019-03-25T09:11:59.998Z,80.89
2019-03-25T09:13:00.009Z,80.13
2019-03-25T09:13:59.949Z,78.89
2019-03-25T09:14:59.967Z,80.13
2019-03-25T09:16:00.015Z,80.65
2019-03-25T09:17:00.708Z,80.54
2019-03-25T09:17:59.949Z,78.72
2019-03-25T09:18:59.923Z,78.62
2019-03-25T09:19:59.905Z,79.41
2019-03-25T09:20:59.853Z,78.28
2019-03-25T09:21:59.894Z,79.10
2019-03-25T09:22:59.875Z,78.89
2019-03-25T09:23:59.823Z,77.93
2019-03-25T09:24:59.813Z,78.75
2019-03-25T09:25:59.855Z,79.06
2019-03-25T09:26:59.811Z,78.96
2019-03-25T09:27:59.858Z,79.51
2019-03-25T09:28:59.807Z,78.58
2019-03-25T09:29:59.842Z,79.61
2019-03-25T09:30:59.761Z,79.93
2019-03-25T09:31:59.761Z,79.96
2019-03-25T09:32:59.720Z,78.21
2019-03-25T09:33:59.705Z,79.07
2019-03-25T09:34:59.712Z,79.17
2019-03-25T09:35:59.774Z,79.41
2019-03-25T09:36:59.750Z,80.76
2019-03-25T09:37:59.716Z,79.28
2019-03-25T09:38:59.694Z,80.25
2019-03-25T09:39:59.670Z,81.59
2019-03-25T09:40:59.653Z,82.73
2019-03-25T09:41:59.703Z,83.39
2019-03-25T09:42:59.636Z,84.21
2019-03-25T09:43:59.643Z,84.17
2019-03-25T09:44:59.612Z,84.38
2019-03-25T09:45:59.608Z,84.17
2019-03-25T09:46:59.631Z,82.25
2019-03-25T09:47:59.589Z,82.93
2019-03-25T09:48:59.535Z,83.34
2019-03-25T09:49:59.598Z,82.83
2019-03-25T09:50:59.553Z,83.25
2019-03-25T09:51:59.528Z,83.25
2019-03-25T09:52:59.496Z,83.55
2019-03-25T09:53:59.524Z,83.65
2019-03-25T09:54:59.521Z,84.17
2019-03-25T09:55:59.488Z,83.86
2019-03-25T09:56:59.497Z,85.41
2019-03-25T09:57:59.468Z,85.41
2019-03-25T09:58:59.445Z,83.65
2019-03-25T09:59:59.491Z,83.93
2019-03-25T10:00:59.515Z,83.51
2019-03-25T10:01:59.446Z,82.79
2019-03-25T10:02:59.410Z,83.20
2019-03-25T10:03:59.458Z,82.69
2019-03-25T10:04:59.416Z,83.20
2019-03-25T10:05:59.392Z,82.38
2019-03-25T10:06:59.431Z,82.17
2019-03-25T10:07:59.376Z,82.96
2019-03-25T10:08:59.374Z,83.31
2019-03-25T10:09:59.386Z,83.17
2019-03-25T10:10:59.297Z,83.20
2019-03-25T10:11:59.369Z,83.37
2019-03-25T10:12:59.326Z,82.24
2019-03-25T10:13:59.314Z,82.24
2019-03-25T10:14:59.277Z,82.20
2019-03-25T10:15:59.326Z,82.10
2019-03-25T10:16:59.277Z,81.54
2019-03-25T10:17:59.267Z,81.13
2019-03-25T10:18:59.245Z,80.93
2019-03-25T10:19:59.239Z,79.17
2019-03-25T10:20:59.230Z,80.30
2019-03-25T10:21:59.239Z,80.51
2019-03-25T10:22:59.178Z,80.62
2019-03-25T10:23:59.191Z,77.62
2019-03-25T10:24:59.192Z,78.14
2019-03-25T10:25:59.185Z,76.49
2019-03-25T10:26:59.224Z,75.87
2019-03-25T10:27:59.132Z,75.56
2019-03-25T10:28:59.130Z,75.32
2019-03-25T10:29:59.167Z,74.08
2019-03-25T10:30:59.126Z,72.96
2019-03-25T10:31:59.095Z,72.54
2019-03-25T10:32:59.085Z,71.89
2019-03-25T10:33:59.106Z,70.65
2019-03-25T10:34:59.090Z,70.04
2019-03-25T10:35:59.095Z,71.27
2019-03-25T10:36:59.054Z,71.58
2019-03-25T10:37:59.045Z,71.69
2019-03-25T10:38:59.006Z,71.96
2019-03-25T10:39:59.487Z,72.20
2019-03-25T10:40:59.027Z,72.37
2019-03-25T10:41:59.023Z,71.99
2019-03-25T10:42:58.952Z,72.47
2019-03-25T10:43:59.010Z,71.75
2019-03-25T10:44:58.943Z,70.42
2019-03-25T10:45:58.933Z,70.21
2019-03-25T10:46:58.962Z,70.31
2019-03-25T10:47:58.905Z,68.46
2019-03-25T10:48:58.908Z,68.56
2019-03-25T10:49:58.895Z,69.07
2019-03-25T10:50:58.864Z,67.91
2019-03-25T10:51:58.910Z,67.50
2019-03-25T10:52:58.859Z,68.63
2019-03-25T10:53:58.848Z,67.40
2019-03-25T10:55:58.833Z,66.16
2019-03-25T10:56:58.854Z,64.41
2019-03-25T10:57:58.802Z,65.34
2019-03-25T10:58:58.821Z,64.18
2019-03-25T10:59:58.781Z,62.23
2019-03-25T11:00:58.855Z,61.71
2019-03-25T11:01:58.765Z,60.47
2019-03-25T11:02:58.803Z,61.61
2019-03-25T11:03:58.743Z,61.99
2019-03-25T11:04:58.734Z,61.27
2019-03-25T11:05:58.740Z,62.19
2019-03-25T11:06:58.780Z,60.55
2019-03-25T11:07:58.727Z,61.27
2019-03-25T11:08:58.659Z,60.63
2019-03-25T11:09:58.668Z,60.63
2019-03-25T11:10:58.660Z,61.76
2019-03-25T11:11:58.651Z,61.86
2019-03-25T11:12:58.659Z,61.14
2019-03-25T11:13:58.619Z,60.83
2019-03-25T11:14:58.598Z,61.58
2019-03-25T11:15:58.629Z,60.86
2019-03-25T11:16:58.618Z,61.79
2019-03-25T11:17:58.582Z,60.96
2019-03-25T11:18:58.566Z,61.68
2019-03-25T11:19:58.563Z,61.17
2019-03-25T11:20:58.542Z,61.58
2019-03-25T11:21:58.542Z,64.11
2019-03-25T11:22:58.529Z,67.63
2019-03-25T11:23:58.506Z,71.13
2019-03-25T11:24:58.496Z,72.74
2019-03-25T11:25:58.530Z,74.67
2019-03-25T11:26:58.469Z,75.91
2019-03-25T11:27:58.499Z,76.09
2019-03-25T11:29:04.583Z,78.19
2019-03-25T11:29:59.462Z,78.85
2019-03-25T11:30:58.430Z,79.26
2019-03-25T11:31:58.421Z,79.91
2019-03-25T11:32:58.446Z,81.26
2019-03-25T11:33:58.406Z,80.85
2019-03-25T11:34:58.367Z,81.16
2019-03-25T11:35:58.391Z,80.91
2019-03-25T11:36:58.369Z,80.60
2019-03-25T11:37:58.362Z,81.64
2019-03-25T11:38:58.353Z,81.95
2019-03-25T11:39:58.315Z,81.95
2019-03-25T11:40:58.319Z,80.19
2019-03-25T11:41:58.308Z,79.77
2019-03-25T11:42:58.348Z,80.50
2019-03-25T11:43:58.276Z,79.77
2019-03-25T11:44:58.282Z,78.85
2019-03-25T11:45:58.253Z,79.88
2019-03-25T11:46:58.264Z,79.22
2019-03-25T11:47:58.274Z,79.84
2019-03-25T11:48:58.295Z,79.43
2019-03-25T11:49:58.223Z,79.43
2019-03-25T11:50:58.229Z,79.70
2019-03-25T11:51:58.204Z,79.39
2019-03-25T11:52:58.220Z,79.60
2019-03-25T11:53:58.752Z,80.11
2019-03-25T11:54:58.167Z,81.15
2019-03-25T11:55:58.154Z,79.36
2019-03-25T11:56:58.147Z,80.49
2019-03-25T11:57:58.174Z,82.10
2019-03-25T11:58:58.173Z,81.07
2019-03-25T11:59:58.140Z,79.94
2019-03-25T12:00:58.132Z,80.21
2019-03-25T12:01:58.120Z,79.69
2019-03-25T12:02:58.120Z,80.48
2019-03-25T12:03:58.117Z,79.25
2019-03-25T12:04:58.048Z,78.21
2019-03-25T12:05:58.094Z,79.21
2019-03-25T12:06:58.043Z,79.52
2019-03-25T12:07:58.064Z,78.34
2019-03-25T12:08:58.045Z,78.14
2019-03-25T12:09:58.035Z,77.73
2019-03-25T12:10:58.004Z,78.83
2019-03-25T12:11:57.988Z,76.87
2019-03-25T12:12:58.007Z,75.70
2019-03-25T12:13:57.994Z,74.80
2019-03-25T12:14:57.959Z,75.67
2019-03-25T12:15:57.980Z,74.26
2019-03-25T12:16:57.958Z,75.77
2019-03-25T12:17:57.952Z,75.97
2019-03-25T12:18:58.002Z,73.57
2019-03-25T12:19:57.900Z,75.73
2019-03-25T12:20:57.890Z,74.40
2019-03-25T12:21:57.872Z,73.95
2019-03-25T12:22:57.904Z,72.09
2019-03-25T12:23:57.854Z,73.13
2019-03-25T12:24:57.855Z,71.96
2019-03-25T12:25:57.829Z,72.44
2019-03-25T12:26:57.904Z,72.24
2019-03-25T12:27:57.880Z,71.93
2019-03-25T12:28:57.810Z,72.20
2019-03-25T12:29:57.819Z,69.23
2019-03-25T12:30:57.822Z,69.12
2019-03-25T12:31:57.776Z,69.94
2019-03-25T12:33:03.905Z,70.04
2019-03-25T12:33:58.803Z,70.42
2019-03-25T12:34:57.767Z,66.14
2019-03-25T12:35:57.704Z,65.80
2019-03-25T12:36:57.714Z,65.19
2019-03-25T12:37:57.786Z,64.98
2019-03-25T12:38:57.722Z,61.90
2019-03-25T12:39:57.690Z,63.65
2019-03-25T12:40:57.667Z,61.52
2019-03-25T12:41:57.663Z,62.11
2019-03-25T12:42:57.702Z,62.24
2019-03-25T12:43:57.640Z,61.62
2019-03-25T12:44:57.654Z,61.83
2019-03-25T12:45:57.637Z,63.27
2019-03-25T12:46:57.620Z,63.37
2019-03-25T12:47:57.643Z,64.19
2019-03-25T12:48:57.598Z,63.98
2019-03-25T12:49:57.623Z,63.89
2019-03-25T12:50:57.580Z,66.28
2019-03-25T12:51:57.577Z,67.92
2019-03-25T12:52:57.639Z,69.32
2019-03-25T12:53:57.524Z,70.15
2019-03-25T12:54:57.530Z,71.83